createdAt,value
2018-05-04T00:00:23.247Z,959.46
2018-05-04T00:01:03.773Z,959.47
2018-05-04T00:01:44.294Z,959.42
2018-05-04T00:02:24.818Z,959.48
2018-05-04T00:03:05.346Z,959.46
2018-05-04T00:03:45.875Z,959.5
2018-05-04T00:04:26.400Z,959.51
2018-05-04T00:05:06.937Z,959.5
2018-05-04T00:05:47.461Z,959.51
2018-05-04T00:06:27.987Z,959.54
2018-05-04T00:07:08.508Z,959.53
2018-05-04T00:07:49.030Z,959.52
2018-05-04T00:08:29.546Z,959.54
2018-05-04T00:09:11.023Z,959.55
2018-05-04T00:09:51.552Z,959.6
2018-05-04T00:10:32.083Z,959.62
2018-05-04T00:11:12.604Z,959.58
2018-05-04T00:11:53.120Z,959.56
2018-05-04T00:12:33.646Z,959.57
2018-05-04T00:13:14.180Z,959.6
2018-05-04T00:13:54.705Z,959.61
2018-05-04T00:14:35.226Z,959.64
2018-05-04T00:15:15.762Z,959.62
2018-05-04T00:15:56.287Z,959.59
2018-05-04T00:16:36.798Z,959.63
2018-05-04T00:17:17.323Z,959.61
2018-05-04T00:17:57.851Z,959.65
2018-05-04T00:18:38.385Z,959.59
2018-05-04T00:19:18.914Z,959.68
2018-05-04T00:19:59.435Z,959.68
2018-05-04T00:20:39.963Z,959.69
2018-05-04T00:21:20.470Z,959.69
2018-05-04T00:22:01.857Z,959.71
2018-05-04T00:22:42.386Z,959.74
2018-05-04T00:23:22.942Z,959.77
2018-05-04T00:24:03.401Z,959.78
2018-05-04T00:24:43.882Z,959.78
2018-05-04T00:25:24.367Z,959.72
2018-05-04T00:26:04.843Z,959.72
2018-05-04T00:26:45.354Z,959.7
2018-05-04T00:27:25.872Z,959.7
2018-05-04T00:28:06.404Z,959.72
2018-05-04T00:28:46.935Z,959.7
2018-05-04T00:29:27.465Z,959.69
2018-05-04T00:30:07.989Z,959.67
2018-05-04T00:30:48.521Z,959.71
2018-05-04T00:31:29.058Z,959.72
2018-05-04T00:32:09.594Z,959.71
2018-05-04T00:32:50.121Z,959.73
2018-05-04T00:33:30.653Z,959.74
2018-05-04T00:34:11.855Z,959.72
2018-05-04T00:34:51.697Z,959.72
2018-05-04T00:35:32.231Z,959.74
2018-05-04T00:36:12.757Z,959.72
2018-05-04T00:36:54.118Z,959.71
2018-05-04T00:37:34.647Z,959.72
2018-05-04T00:38:15.181Z,959.68
2018-05-04T00:38:55.774Z,959.69
2018-05-04T00:39:36.221Z,959.7
2018-05-04T00:40:16.752Z,959.71
2018-05-04T00:40:57.277Z,959.69
2018-05-04T00:41:37.813Z,959.62
2018-05-04T00:42:18.338Z,959.66
2018-05-04T00:42:58.893Z,959.64
2018-05-04T00:43:39.391Z,959.66
2018-05-04T00:44:19.929Z,959.6
2018-05-04T00:45:00.458Z,959.65
2018-05-04T00:45:40.956Z,959.63
2018-05-04T00:46:21.492Z,959.6
2018-05-04T00:47:02.024Z,959.64
2018-05-04T00:47:42.557Z,959.61
2018-05-04T00:48:23.063Z,959.59
2018-05-04T00:49:03.594Z,959.58
2018-05-04T00:49:44.123Z,959.55
2018-05-04T00:50:24.652Z,959.5
2018-05-04T00:51:05.177Z,959.48
2018-05-04T00:51:45.695Z,959.49
2018-05-04T00:52:26.226Z,959.48
2018-05-04T00:53:06.745Z,959.44
2018-05-04T00:53:47.258Z,959.46
2018-05-04T00:54:27.776Z,959.39
2018-05-04T00:55:08.307Z,959.36
2018-05-04T00:55:48.838Z,959.43
2018-05-04T00:56:29.346Z,959.45
2018-05-04T00:57:09.857Z,959.43
2018-05-04T00:57:50.438Z,959.49
2018-05-04T00:58:30.893Z,959.52
2018-05-04T00:59:12.182Z,959.57
2018-05-04T00:59:52.698Z,959.66
2018-05-04T01:00:33.224Z,959.65
2018-05-04T01:01:14.267Z,959.65
2018-05-04T01:01:54.793Z,959.62
2018-05-04T01:02:35.307Z,959.66
2018-05-04T01:03:15.832Z,959.61
2018-05-04T01:03:56.334Z,959.57
2018-05-04T01:04:36.844Z,959.52
2018-05-04T01:05:17.346Z,959.51
2018-05-04T01:05:57.870Z,959.49
2018-05-04T01:06:38.379Z,959.54
2018-05-04T01:07:18.906Z,959.49
2018-05-04T01:07:59.433Z,959.51
2018-05-04T01:08:39.964Z,959.51
2018-05-04T01:09:20.480Z,959.52
2018-05-04T01:10:01.006Z,959.51
2018-05-04T01:10:41.529Z,959.54
2018-05-04T01:11:22.067Z,959.54
2018-05-04T01:12:02.583Z,959.54
2018-05-04T01:12:43.103Z,959.58
2018-05-04T01:13:23.628Z,959.61
2018-05-04T01:14:04.157Z,959.64
2018-05-04T01:14:44.685Z,959.64
2018-05-04T01:15:25.862Z,959.67
2018-05-04T01:16:05.736Z,959.67
2018-05-04T01:16:46.271Z,959.73
2018-05-04T01:17:26.786Z,959.71
2018-05-04T01:18:07.322Z,959.69
2018-05-04T01:18:47.841Z,959.69
2018-05-04T01:19:28.363Z,959.69
2018-05-04T01:20:08.879Z,959.72
2018-05-04T01:20:49.390Z,959.74
2018-05-04T01:21:29.914Z,959.71
2018-05-04T01:22:10.437Z,959.73
2018-05-04T01:22:50.935Z,959.7
2018-05-04T01:23:31.474Z,959.69
2018-05-04T01:24:11.988Z,959.72
2018-05-04T01:24:52.512Z,959.72
2018-05-04T01:25:33.054Z,959.68
2018-05-04T01:26:14.151Z,959.7
2018-05-04T01:26:55.374Z,959.73
2018-05-04T01:27:35.176Z,959.69
2018-05-04T01:28:15.702Z,959.68
2018-05-04T01:28:56.228Z,959.71
2018-05-04T01:29:36.758Z,959.66
2018-05-04T01:30:17.283Z,959.66
2018-05-04T01:30:57.817Z,959.66
2018-05-04T01:31:38.328Z,959.65
2018-05-04T01:32:18.853Z,959.62
2018-05-04T01:32:59.388Z,959.66
2018-05-04T01:33:39.907Z,959.67
2018-05-04T01:34:20.429Z,959.67
2018-05-04T01:35:01.842Z,959.69
2018-05-04T01:35:42.371Z,959.74
2018-05-04T01:36:22.906Z,959.72
2018-05-04T01:37:03.432Z,959.73
2018-05-04T01:37:43.963Z,959.71
2018-05-04T01:38:24.491Z,959.75
2018-05-04T01:39:05.018Z,959.74
2018-05-04T01:39:46.369Z,959.71
2018-05-04T01:40:26.065Z,959.74
2018-05-04T01:41:06.586Z,959.76
2018-05-04T01:41:47.084Z,959.67
2018-05-04T01:42:27.598Z,959.65
2018-05-04T01:43:08.124Z,959.63
2018-05-04T01:43:48.650Z,959.6
2018-05-04T01:44:29.171Z,959.63
2018-05-04T01:45:09.692Z,959.65
2018-05-04T01:45:50.221Z,959.67
2018-05-04T01:46:30.753Z,959.76
2018-05-04T01:47:11.283Z,959.72
2018-05-04T01:47:51.809Z,959.74
2018-05-04T01:48:32.335Z,959.74
2018-05-04T01:49:12.848Z,959.73
2018-05-04T01:49:53.376Z,959.69
2018-05-04T01:50:33.894Z,959.69
2018-05-04T01:51:14.404Z,959.69
2018-05-04T01:51:54.935Z,959.69
2018-05-04T01:52:35.462Z,959.71
2018-05-04T01:53:16.678Z,959.7
2018-05-04T01:53:57.207Z,959.75
2018-05-04T01:54:37.739Z,959.71
2018-05-04T01:55:18.267Z,959.73
2018-05-04T01:55:58.795Z,959.76
2018-05-04T01:56:39.321Z,959.76
2018-05-04T01:57:19.843Z,959.77
2018-05-04T01:58:00.357Z,959.77
2018-05-04T01:58:40.889Z,959.76
2018-05-04T01:59:21.416Z,959.74
2018-05-04T02:00:01.922Z,959.74
2018-05-04T02:00:42.416Z,959.72
2018-05-04T02:01:22.942Z,959.76
2018-05-04T02:02:03.480Z,959.74
2018-05-04T02:02:44.002Z,959.76
2018-05-04T02:03:24.519Z,959.78
2018-05-04T02:04:05.052Z,959.77
2018-05-04T02:04:45.569Z,959.78
2018-05-04T02:05:26.070Z,959.78
2018-05-04T02:06:06.593Z,959.76
2018-05-04T02:06:47.112Z,959.74
2018-05-04T02:07:27.638Z,959.78
2018-05-04T02:08:08.166Z,959.8
2018-05-04T02:08:48.698Z,959.79
2018-05-04T02:09:29.871Z,959.78
2018-05-04T02:10:10.243Z,959.74
2018-05-04T02:10:50.772Z,959.79
2018-05-04T02:11:31.309Z,959.78
2018-05-04T02:12:11.832Z,959.78
2018-05-04T02:12:52.358Z,959.79
2018-05-04T02:13:32.894Z,959.8
2018-05-04T02:14:13.423Z,959.78
2018-05-04T02:14:53.948Z,959.8
2018-05-04T02:15:34.469Z,959.82
2018-05-04T02:16:15.004Z,959.82
2018-05-04T02:16:55.527Z,959.83
2018-05-04T02:17:36.053Z,959.79
2018-05-04T02:18:16.578Z,959.82
2018-05-04T02:18:57.872Z,959.82
2018-05-04T02:19:37.625Z,959.82
2018-05-04T02:20:18.145Z,959.85
2018-05-04T02:20:58.672Z,959.83
2018-05-04T02:21:39.196Z,959.86
2018-05-04T02:22:19.744Z,959.81
2018-05-04T02:23:00.259Z,959.83
2018-05-04T02:23:40.784Z,959.79
2018-05-04T02:24:21.288Z,959.75
2018-05-04T02:25:01.815Z,959.75
2018-05-04T02:25:42.324Z,959.75
2018-05-04T02:26:22.836Z,959.79
2018-05-04T02:27:03.358Z,959.78
2018-05-04T02:27:43.876Z,959.74
2018-05-04T02:28:24.400Z,959.74
2018-05-04T02:29:04.930Z,959.72
2018-05-04T02:29:45.453Z,959.71
2018-05-04T02:30:25.980Z,959.73
2018-05-04T02:31:06.511Z,959.76
2018-05-04T02:31:47.022Z,959.81
2018-05-04T02:32:27.560Z,959.79
2018-05-04T02:33:08.088Z,959.79
2018-05-04T02:33:48.616Z,959.83
2018-05-04T02:34:29.141Z,959.84
2018-05-04T02:35:09.672Z,959.86
2018-05-04T02:35:50.191Z,959.92
2018-05-04T02:36:30.724Z,959.87
2018-05-04T02:37:11.254Z,959.87
2018-05-04T02:37:51.784Z,959.91
2018-05-04T02:38:32.319Z,959.86
2018-05-04T02:39:13.806Z,959.9
2018-05-04T02:39:54.285Z,959.85
2018-05-04T02:40:34.804Z,959.83
2018-05-04T02:41:15.313Z,959.85
2018-05-04T02:41:55.827Z,959.85
2018-05-04T02:42:36.317Z,959.89
2018-05-04T02:43:16.824Z,959.89
2018-05-04T02:43:57.352Z,959.89
2018-05-04T02:44:37.875Z,959.89
2018-05-04T02:45:18.405Z,959.89
2018-05-04T02:45:58.933Z,959.9
2018-05-04T02:46:39.454Z,959.89
2018-05-04T02:47:19.990Z,959.89
2018-05-04T02:48:00.574Z,959.92
2018-05-04T02:48:41.039Z,959.95
2018-05-04T02:49:21.557Z,959.95
2018-05-04T02:50:02.086Z,959.98
2018-05-04T02:50:42.621Z,959.99
2018-05-04T02:51:23.151Z,960
2018-05-04T02:52:03.821Z,960
2018-05-04T02:52:44.176Z,960.03
2018-05-04T02:53:24.691Z,960.02
2018-05-04T02:54:05.216Z,959.99
2018-05-04T02:54:45.740Z,959.99
2018-05-04T02:55:26.285Z,960.03
2018-05-04T02:56:06.802Z,960.03
2018-05-04T02:56:47.324Z,960.06
2018-05-04T02:57:27.856Z,960.06
2018-05-04T02:58:08.391Z,960.07
2018-05-04T02:58:48.907Z,960.05
2018-05-04T02:59:29.674Z,960.03
2018-05-04T03:00:10.198Z,960.03
2018-05-04T03:00:50.727Z,959.97
2018-05-04T03:01:31.261Z,960.02
2018-05-04T03:02:11.778Z,960
2018-05-04T03:02:52.314Z,960
2018-05-04T03:03:32.854Z,959.99
2018-05-04T03:04:13.370Z,959.97
2018-05-04T03:04:53.900Z,960.01
2018-05-04T03:05:34.424Z,960
2018-05-04T03:06:14.953Z,960.02
2018-05-04T03:06:56.300Z,960.04
2018-05-04T03:07:36.812Z,960.01
2018-05-04T03:08:17.351Z,960.02
2018-05-04T03:08:57.857Z,960.03
2018-05-04T03:09:38.392Z,960.06
2018-05-04T03:10:18.922Z,960.02
2018-05-04T03:10:59.460Z,959.97
2018-05-04T03:11:39.985Z,959.99
2018-05-04T03:12:20.490Z,959.98
2018-05-04T03:13:01.005Z,959.9
2018-05-04T03:13:41.481Z,959.92
2018-05-04T03:14:21.964Z,959.88
2018-05-04T03:15:02.481Z,959.91
2018-05-04T03:15:42.958Z,959.93
2018-05-04T03:16:23.460Z,959.91
2018-05-04T03:17:03.918Z,959.93
2018-05-04T03:17:44.460Z,959.9
2018-05-04T03:18:24.961Z,959.88
2018-05-04T03:19:05.557Z,959.9
2018-05-04T03:19:46.027Z,959.92
2018-05-04T03:20:26.588Z,959.89
2018-05-04T03:21:07.041Z,959.89
2018-05-04T03:21:47.673Z,959.92
2018-05-04T03:22:28.161Z,959.91
2018-05-04T03:23:08.653Z,959.87
2018-05-04T03:23:50.436Z,959.9
2018-05-04T03:24:31.433Z,959.91
2018-05-04T03:25:11.940Z,959.9
2018-05-04T03:25:52.432Z,959.89
2018-05-04T03:26:32.919Z,959.88
2018-05-04T03:27:13.479Z,959.9
2018-05-04T03:27:54.308Z,959.92
2018-05-04T03:28:34.862Z,959.86
2018-05-04T03:29:15.616Z,959.92
2018-05-04T03:29:56.171Z,959.93
2018-05-04T03:30:36.711Z,959.91
2018-05-04T03:31:17.886Z,959.99
2018-05-04T03:31:57.705Z,959.98
2018-05-04T03:32:38.199Z,960.01
2018-05-04T03:33:18.986Z,959.98
2018-05-04T03:33:59.698Z,960.01
2018-05-04T03:34:40.216Z,959.99
2018-05-04T03:35:21.977Z,959.99
2018-05-04T03:36:02.608Z,960
2018-05-04T03:36:43.108Z,959.97
2018-05-04T03:37:23.601Z,959.97
2018-05-04T03:38:04.105Z,959.96
2018-05-04T03:38:45.021Z,960
2018-05-04T03:39:25.131Z,959.92
2018-05-04T03:40:05.650Z,959.97
2018-05-04T03:40:47.896Z,959.97
2018-05-04T03:41:28.415Z,959.95
2018-05-04T03:42:09.025Z,959.96
2018-05-04T03:42:49.553Z,959.97
2018-05-04T03:43:30.254Z,959.93
2018-05-04T03:44:10.934Z,959.93
2018-05-04T03:44:52.576Z,959.97
2018-05-04T03:45:33.208Z,959.99
2018-05-04T03:46:13.719Z,960
2018-05-04T03:46:54.184Z,960.02
2018-05-04T03:47:34.694Z,960.04
2018-05-04T03:48:15.788Z,960.01
2018-05-04T03:48:56.355Z,960.06
2018-05-04T03:49:36.869Z,960.07
2018-05-04T03:50:17.395Z,960.06
2018-05-04T03:50:57.882Z,960.04
2018-05-04T03:51:38.406Z,960.06
2018-05-04T03:52:18.908Z,960.05
2018-05-04T03:52:59.428Z,960.04
2018-05-04T03:53:39.939Z,960.03
2018-05-04T03:54:20.456Z,960.07
2018-05-04T03:55:01.170Z,960.08
2018-05-04T03:55:41.696Z,960.05
2018-05-04T03:56:22.199Z,959.98
2018-05-04T03:57:02.700Z,960.04
2018-05-04T03:57:43.195Z,960.08
2018-05-04T03:58:23.721Z,960.1
2018-05-04T03:59:05.100Z,960.13
2018-05-04T03:59:45.590Z,960.12
2018-05-04T04:00:26.116Z,960.08
2018-05-04T04:01:06.636Z,960.12
2018-05-04T04:01:47.146Z,960.08
2018-05-04T04:02:27.660Z,960.08
2018-05-04T04:03:08.131Z,960.14
2018-05-04T04:03:48.648Z,960.15
2018-05-04T04:04:29.140Z,960.15
2018-05-04T04:05:09.650Z,960.14
2018-05-04T04:05:50.159Z,960.21
2018-05-04T04:06:30.656Z,960.18
2018-05-04T04:07:11.174Z,960.19
2018-05-04T04:07:51.679Z,960.18
2018-05-04T04:08:32.194Z,960.13
2018-05-04T04:09:12.678Z,960.19
2018-05-04T04:09:53.173Z,960.19
2018-05-04T04:10:34.611Z,960.18
2018-05-04T04:11:15.082Z,960.16
2018-05-04T04:11:55.605Z,960.21
2018-05-04T04:12:36.103Z,960.16
2018-05-04T04:13:16.601Z,960.15
2018-05-04T04:13:57.172Z,960.18
2018-05-04T04:14:37.670Z,960.13
2018-05-04T04:15:18.188Z,960.11
2018-05-04T04:15:58.684Z,960.11
2018-05-04T04:16:39.202Z,960.08
2018-05-04T04:17:19.705Z,960.03
2018-05-04T04:18:00.180Z,960.07
2018-05-04T04:18:41.396Z,960.03
2018-05-04T04:19:21.231Z,960
2018-05-04T04:20:01.692Z,959.96
2018-05-04T04:20:42.201Z,960
2018-05-04T04:21:22.727Z,960.02
2018-05-04T04:22:03.247Z,959.98
2018-05-04T04:22:43.780Z,960
2018-05-04T04:23:24.305Z,960.01
2018-05-04T04:24:04.827Z,960.01
2018-05-04T04:24:45.358Z,960.03
2018-05-04T04:25:25.887Z,959.98
2018-05-04T04:26:06.409Z,960.05
2018-05-04T04:26:46.921Z,960.02
2018-05-04T04:27:27.434Z,960.05
2018-05-04T04:28:08.012Z,960.02
2018-05-04T04:28:48.493Z,960.08
2018-05-04T04:29:29.024Z,960.09
2018-05-04T04:30:09.554Z,960.12
2018-05-04T04:30:50.079Z,960.15
2018-05-04T04:31:30.615Z,960.16
2018-05-04T04:32:11.148Z,960.2
2018-05-04T04:32:51.653Z,960.18
2018-05-04T04:33:32.181Z,960.2
2018-05-04T04:34:12.694Z,960.21
2018-05-04T04:34:54.153Z,960.22
2018-05-04T04:35:34.677Z,960.2
2018-05-04T04:36:15.192Z,960.19
2018-05-04T04:36:55.720Z,960.19
2018-05-04T04:37:37.070Z,960.21
2018-05-04T04:38:17.580Z,960.2
2018-05-04T04:38:58.115Z,960.19
2018-05-04T04:39:38.693Z,960.21
2018-05-04T04:40:19.175Z,960.24
2018-05-04T04:40:59.685Z,960.23
2018-05-04T04:41:40.218Z,960.18
2018-05-04T04:42:20.752Z,960.23
2018-05-04T04:43:01.258Z,960.2
2018-05-04T04:43:41.778Z,960.2
2018-05-04T04:44:22.314Z,960.24
2018-05-04T04:45:02.824Z,960.23
2018-05-04T04:45:43.348Z,960.3
2018-05-04T04:46:23.873Z,960.3
2018-05-04T04:47:04.400Z,960.31
2018-05-04T04:47:44.931Z,960.37
2018-05-04T04:48:25.492Z,960.32
2018-05-04T04:49:06.029Z,960.32
2018-05-04T04:49:46.549Z,960.3
2018-05-04T04:50:27.064Z,960.32
2018-05-04T04:51:07.591Z,960.34
2018-05-04T04:51:48.102Z,960.33
2018-05-04T04:52:28.625Z,960.29
2018-05-04T04:53:09.158Z,960.29
2018-05-04T04:53:49.693Z,960.31
2018-05-04T04:54:30.217Z,960.34
2018-05-04T04:55:10.746Z,960.34
2018-05-04T04:55:51.271Z,960.35
2018-05-04T04:56:31.799Z,960.37
2018-05-04T04:57:12.325Z,960.38
2018-05-04T04:57:52.859Z,960.35
2018-05-04T04:58:33.382Z,960.36
2018-05-04T04:59:14.162Z,960.4
2018-05-04T04:59:54.691Z,960.37
2018-05-04T05:00:35.220Z,960.38
2018-05-04T05:01:15.744Z,960.43
2018-05-04T05:01:59.067Z,960.38
2018-05-04T05:02:39.497Z,960.4
2018-05-04T05:03:20.020Z,960.36
2018-05-04T05:04:00.550Z,960.39
2018-05-04T05:04:41.082Z,960.38
2018-05-04T05:05:21.614Z,960.38
2018-05-04T05:06:02.215Z,960.39
2018-05-04T05:06:42.802Z,960.39
2018-05-04T05:07:23.303Z,960.43
2018-05-04T05:08:03.845Z,960.37
2018-05-04T05:08:44.465Z,960.39
2018-05-04T05:09:24.986Z,960.41
2018-05-04T05:10:05.505Z,960.41
2018-05-04T05:10:46.029Z,960.41
2018-05-04T05:11:26.556Z,960.44
2018-05-04T05:12:07.089Z,960.4
2018-05-04T05:12:48.274Z,960.44
2018-05-04T05:13:28.797Z,960.44
2018-05-04T05:14:09.312Z,960.43
2018-05-04T05:14:49.860Z,960.41
2018-05-04T05:15:30.393Z,960.44
2018-05-04T05:16:10.925Z,960.42
2018-05-04T05:16:51.446Z,960.47
2018-05-04T05:17:31.976Z,960.41
2018-05-04T05:18:12.511Z,960.45
2018-05-04T05:18:53.044Z,960.5
2018-05-04T05:19:33.574Z,960.51
2018-05-04T05:20:14.315Z,960.44
2018-05-04T05:20:54.841Z,960.48
2018-05-04T05:21:35.369Z,960.46
2018-05-04T05:22:15.898Z,960.44
2018-05-04T05:22:56.413Z,960.43
2018-05-04T05:23:37.001Z,960.43
2018-05-04T05:24:17.431Z,960.43
2018-05-04T05:24:57.943Z,960.45
2018-05-04T05:25:38.437Z,960.46
2018-05-04T05:26:18.933Z,960.49
2018-05-04T05:26:59.571Z,960.54
2018-05-04T05:27:40.112Z,960.5
2018-05-04T05:28:21.508Z,960.51
2018-05-04T05:29:02.198Z,960.56
2018-05-04T05:29:42.835Z,960.56
2018-05-04T05:30:23.248Z,960.6
2018-05-04T05:31:03.609Z,960.59
2018-05-04T05:31:44.909Z,960.57
2018-05-04T05:32:24.780Z,960.57
2018-05-04T05:33:05.303Z,960.61
2018-05-04T05:33:45.690Z,960.58
2018-05-04T05:34:26.230Z,960.57
2018-05-04T05:35:06.722Z,960.57
2018-05-04T05:35:47.241Z,960.59
2018-05-04T05:36:27.732Z,960.57
2018-05-04T05:37:08.227Z,960.58
2018-05-04T05:37:49.506Z,960.59
2018-05-04T05:38:29.216Z,960.58
2018-05-04T05:39:09.660Z,960.62
2018-05-04T05:39:50.163Z,960.63
2018-05-04T05:40:30.590Z,960.63
2018-05-04T05:41:11.137Z,960.61
2018-05-04T05:41:51.650Z,960.62
2018-05-04T05:42:32.217Z,960.65
2018-05-04T05:43:12.622Z,960.64
2018-05-04T05:43:53.138Z,960.62
2018-05-04T05:44:33.594Z,960.63
2018-05-04T05:45:14.145Z,960.59
2018-05-04T05:45:55.495Z,960.58
2018-05-04T05:46:36.024Z,960.6
2018-05-04T05:47:17.310Z,960.56
2018-05-04T05:47:57.730Z,960.61
2018-05-04T05:48:38.308Z,960.64
2018-05-04T05:49:18.819Z,960.63
2018-05-04T05:49:59.311Z,960.67
2018-05-04T05:50:39.876Z,960.66
2018-05-04T05:51:20.339Z,960.66
2018-05-04T05:52:01.412Z,960.65
2018-05-04T05:52:41.358Z,960.68
2018-05-04T05:53:21.872Z,960.65
2018-05-04T05:54:02.413Z,960.7
2018-05-04T05:54:42.912Z,960.71
2018-05-04T05:55:23.915Z,960.68
2018-05-04T05:56:03.891Z,960.67
2018-05-04T05:56:44.430Z,960.67
2018-05-04T05:57:24.928Z,960.72
2018-05-04T05:58:05.948Z,960.67
2018-05-04T05:58:46.317Z,960.75
2018-05-04T05:59:27.640Z,960.75
2018-05-04T06:00:08.138Z,960.77
2018-05-04T06:00:49.355Z,960.72
2018-05-04T06:01:30.266Z,960.77
2018-05-04T06:02:10.795Z,960.8
2018-05-04T06:02:51.258Z,960.75
2018-05-04T06:03:31.733Z,960.75
2018-05-04T06:04:12.250Z,960.75
2018-05-04T06:04:52.740Z,960.73
2018-05-04T06:05:33.213Z,960.69
2018-05-04T06:06:13.741Z,960.69
2018-05-04T06:06:54.259Z,960.67
2018-05-04T06:07:35.247Z,960.68
2018-05-04T06:08:16.275Z,960.67
2018-05-04T06:08:56.765Z,960.66
2018-05-04T06:09:37.258Z,960.67
2018-05-04T06:10:17.829Z,960.7
2018-05-04T06:10:58.349Z,960.65
2018-05-04T06:11:38.813Z,960.66
2018-05-04T06:12:20.419Z,960.65
2018-05-04T06:12:59.825Z,960.71
2018-05-04T06:13:40.339Z,960.7
2018-05-04T06:14:20.872Z,960.68
2018-05-04T06:15:01.284Z,960.72
2018-05-04T06:15:41.751Z,960.75
2018-05-04T06:16:22.261Z,960.76
2018-05-04T06:17:02.755Z,960.78
2018-05-04T06:17:43.277Z,960.84
2018-05-04T06:18:23.834Z,960.82
2018-05-04T06:19:04.301Z,960.83
2018-05-04T06:19:44.842Z,960.87
2018-05-04T06:20:25.285Z,960.86
2018-05-04T06:21:05.871Z,960.91
2018-05-04T06:21:46.322Z,960.98
2018-05-04T06:22:26.842Z,960.97
2018-05-04T06:23:07.342Z,960.97
2018-05-04T06:23:47.833Z,960.93
2018-05-04T06:24:28.384Z,960.91
2018-05-04T06:25:08.987Z,960.9
2018-05-04T06:25:49.456Z,960.91
2018-05-04T06:26:29.933Z,960.9
2018-05-04T06:27:10.441Z,960.9
2018-05-04T06:27:51.070Z,960.92
2018-05-04T06:28:32.427Z,960.9
2018-05-04T06:29:13.050Z,960.88
2018-05-04T06:29:54.469Z,960.9
2018-05-04T06:30:35.031Z,960.93
2018-05-04T06:31:15.453Z,960.92
2018-05-04T06:31:55.970Z,960.9
2018-05-04T06:32:36.482Z,960.88
2018-05-04T06:33:17.022Z,960.88
2018-05-04T06:33:57.481Z,960.88
2018-05-04T06:34:37.963Z,960.87
2018-05-04T06:35:18.429Z,960.89
2018-05-04T06:35:58.892Z,960.84
2018-05-04T06:36:39.453Z,960.82
2018-05-04T06:37:19.905Z,960.85
2018-05-04T06:38:00.420Z,960.84
2018-05-04T06:38:40.906Z,960.81
2018-05-04T06:39:21.399Z,960.89
2018-05-04T06:40:01.881Z,960.86
2018-05-04T06:40:42.369Z,960.85
2018-05-04T06:41:22.896Z,960.88
2018-05-04T06:42:03.407Z,960.92
2018-05-04T06:42:43.925Z,960.94
2018-05-04T06:43:24.387Z,960.93
2018-05-04T06:44:04.908Z,960.89
2018-05-04T06:44:45.417Z,960.87
2018-05-04T06:45:25.876Z,960.86
2018-05-04T06:46:06.929Z,960.89
2018-05-04T06:46:46.877Z,960.85
2018-05-04T06:47:27.389Z,960.84
2018-05-04T06:48:07.870Z,960.86
2018-05-04T06:48:48.429Z,960.9
2018-05-04T06:49:29.431Z,960.88
2018-05-04T06:50:09.366Z,960.89
2018-05-04T06:50:50.931Z,960.87
2018-05-04T06:51:30.353Z,960.88
2018-05-04T06:52:10.860Z,960.86
2018-05-04T06:52:51.340Z,960.85
2018-05-04T06:53:31.848Z,960.85
2018-05-04T06:54:12.380Z,960.9
2018-05-04T06:54:52.862Z,960.87
2018-05-04T06:55:33.357Z,960.87
2018-05-04T06:56:14.794Z,960.81
2018-05-04T06:56:55.304Z,960.82
2018-05-04T06:57:35.770Z,960.81
2018-05-04T06:58:16.266Z,960.85
2018-05-04T06:58:56.782Z,960.85
2018-05-04T06:59:37.244Z,960.84
2018-05-04T07:00:17.736Z,960.85
2018-05-04T07:00:59.110Z,960.8
2018-05-04T07:01:39.604Z,960.8
2018-05-04T07:02:20.084Z,960.83
2018-05-04T07:03:00.588Z,960.84
2018-05-04T07:03:41.098Z,960.86
2018-05-04T07:04:21.576Z,960.88
2018-05-04T07:05:02.087Z,960.92
2018-05-04T07:05:42.555Z,960.85
2018-05-04T07:06:23.050Z,960.87
2018-05-04T07:07:03.544Z,960.87
2018-05-04T07:07:44.031Z,960.93
2018-05-04T07:08:24.525Z,960.93
2018-05-04T07:09:06.469Z,960.92
2018-05-04T07:09:45.794Z,960.92
2018-05-04T07:10:26.986Z,960.96
2018-05-04T07:11:07.461Z,960.98
2018-05-04T07:11:47.985Z,961
2018-05-04T07:12:28.439Z,961.03
2018-05-04T07:13:09.010Z,961.04
2018-05-04T07:13:49.476Z,961.04
2018-05-04T07:14:30.023Z,961.06
2018-05-04T07:15:10.631Z,961.1
2018-05-04T07:15:51.035Z,961.06
2018-05-04T07:16:31.530Z,961.1
2018-05-04T07:17:11.970Z,961.09
2018-05-04T07:17:52.465Z,961.08
2018-05-04T07:18:34.452Z,961.07
2018-05-04T07:19:14.139Z,961.09
2018-05-04T07:19:54.852Z,961.05
2018-05-04T07:20:35.275Z,961.05
2018-05-04T07:21:15.969Z,961.09
2018-05-04T07:21:56.509Z,961.09
2018-05-04T07:22:36.983Z,961.06
2018-05-04T07:23:17.550Z,961.06
2018-05-04T07:23:58.059Z,961.04
2018-05-04T07:24:38.609Z,961.08
2018-05-04T07:25:19.037Z,961.04
2018-05-04T07:25:59.651Z,961.06
2018-05-04T07:26:40.103Z,961.04
2018-05-04T07:27:20.605Z,961.04
2018-05-04T07:28:01.944Z,961.06
2018-05-04T07:28:41.694Z,961.05
2018-05-04T07:29:22.159Z,961.04
2018-05-04T07:30:02.749Z,961.02
2018-05-04T07:30:43.275Z,961.01
2018-05-04T07:31:23.759Z,961.04
2018-05-04T07:32:04.208Z,961
2018-05-04T07:32:44.795Z,961.06
2018-05-04T07:33:25.245Z,961.08
2018-05-04T07:34:05.789Z,961.1
2018-05-04T07:34:46.281Z,961.08
2018-05-04T07:35:26.801Z,961.05
2018-05-04T07:36:07.421Z,961.05
2018-05-04T07:36:47.788Z,960.99
2018-05-04T07:37:28.914Z,961.03
2018-05-04T07:38:09.426Z,961
2018-05-04T07:38:49.890Z,961
2018-05-04T07:39:30.431Z,960.98
2018-05-04T07:40:10.909Z,960.99
2018-05-04T07:40:51.459Z,960.98
2018-05-04T07:41:31.948Z,960.99
2018-05-04T07:42:12.439Z,960.99
2018-05-04T07:42:52.959Z,961
2018-05-04T07:43:33.438Z,960.98
2018-05-04T07:44:13.945Z,960.98
2018-05-04T07:44:54.457Z,960.95
2018-05-04T07:45:34.972Z,961
2018-05-04T07:46:15.452Z,961
2018-05-04T07:46:56.453Z,961
2018-05-04T07:47:36.501Z,960.98
2018-05-04T07:48:16.968Z,960.97
2018-05-04T07:48:57.490Z,960.96
2018-05-04T07:49:38.813Z,960.96
2018-05-04T07:50:19.244Z,960.97
2018-05-04T07:50:59.763Z,961
2018-05-04T07:51:40.276Z,960.96
2018-05-04T07:52:20.826Z,961
2018-05-04T07:53:01.385Z,960.96
2018-05-04T07:53:41.857Z,960.98
2018-05-04T07:57:01.359Z,960.99
2018-05-04T07:57:41.833Z,960.98
2018-05-04T07:58:22.316Z,961.05
2018-05-04T07:59:02.824Z,960.99
2018-05-04T07:59:43.603Z,961.05
2018-05-04T08:00:24.084Z,961.04
2018-05-04T08:01:04.560Z,961.08
2018-05-04T08:01:45.009Z,961.1
2018-05-04T08:02:25.508Z,961.09
2018-05-04T08:03:05.991Z,961.09
2018-05-04T08:03:47.185Z,961.1
2018-05-04T08:04:27.688Z,961.11
2018-05-04T08:05:08.178Z,961.16
2018-05-04T08:05:48.723Z,961.19
2018-05-04T08:06:29.212Z,961.26
2018-05-04T08:07:09.759Z,961.16
2018-05-04T08:07:50.261Z,961.2
2018-05-04T08:08:30.779Z,961.19
2018-05-04T08:09:11.290Z,961.09
2018-05-04T08:09:51.816Z,961.16
2018-05-04T08:10:32.405Z,961.18
2018-05-04T08:11:12.873Z,961.15
2018-05-04T08:11:53.404Z,961.21
2018-05-04T08:12:33.955Z,961.21
2018-05-04T08:13:14.477Z,961.2
2018-05-04T08:13:55.008Z,961.15
2018-05-04T08:14:35.534Z,961.15
2018-05-04T08:15:16.074Z,961.17
2018-05-04T08:15:56.606Z,961.13
2018-05-04T08:16:37.127Z,961.11
2018-05-04T08:17:17.657Z,961.12
2018-05-04T08:17:58.193Z,961.1
2018-05-04T08:18:38.724Z,961.08
2018-05-04T08:19:19.260Z,961.08
2018-05-04T08:19:59.803Z,961.06
2018-05-04T08:20:40.393Z,961.06
2018-05-04T08:21:20.863Z,961.05
2018-05-04T08:22:01.993Z,961.09
2018-05-04T08:22:43.222Z,961.07
2018-05-04T08:23:23.747Z,961.07
2018-05-04T08:24:04.279Z,961.04
2018-05-04T08:24:44.810Z,961.08
2018-05-04T08:25:26.138Z,961.06
2018-05-04T08:26:06.670Z,961.1
2018-05-04T08:26:47.197Z,961.11
2018-05-04T08:27:27.800Z,961.07
2018-05-04T08:28:08.253Z,961.12
2018-05-04T08:28:48.780Z,961.1
2018-05-04T08:29:29.313Z,961.1
2018-05-04T08:30:09.850Z,961.1
2018-05-04T08:30:50.385Z,961.12
2018-05-04T08:31:30.919Z,961.07